createdAt,value
2023-04-30T00:01:35.885Z,10.02
2023-04-30T00:04:04.723Z,9.99
2023-04-30T00:06:33.692Z,9.97
2023-04-30T00:09:00.559Z,9.95
2023-04-30T00:11:30.207Z,9.93
2023-04-30T00:13:58.271Z,9.93
2023-04-30T00:16:25.742Z,9.91
2023-04-30T00:18:53.209Z,9.90
2023-04-30T00:21:21.981Z,9.88
2023-04-30T00:23:51.804Z,9.87
2023-04-30T00:26:19.619Z,9.85
2023-04-30T00:28:48.248Z,9.85
2023-04-30T00:31:16.931Z,9.85
2023-04-30T00:33:45.570Z,9.85
2023-04-30T00:36:12.852Z,9.86
2023-04-30T00:38:40.495Z,9.87
2023-04-30T00:41:07.798Z,9.89
2023-04-30T00:43:35.120Z,9.90
2023-04-30T00:46:04.918Z,9.91
2023-04-30T00:48:32.606Z,9.93
2023-04-30T00:51:00.775Z,9.93
2023-04-30T00:53:30.658Z,9.92
2023-04-30T00:55:58.722Z,9.93
2023-04-30T00:58:26.382Z,9.92
2023-04-30T01:00:54.547Z,9.92
2023-04-30T01:03:22.742Z,9.92
2023-04-30T01:05:49.774Z,9.91
2023-04-30T01:08:16.978Z,9.90
2023-04-30T01:10:53.842Z,9.89
2023-04-30T01:13:26.974Z,9.86
2023-04-30T01:16:19.711Z,9.85
2023-04-30T01:19:03.124Z,9.81
2023-04-30T01:21:30.495Z,9.78
2023-04-30T01:24:06.626Z,9.77
2023-04-30T01:27:04.797Z,9.73
2023-04-30T01:29:32.514Z,9.73
2023-04-30T01:31:59.536Z,9.70
2023-04-30T01:34:26.385Z,9.68
2023-04-30T01:37:08.800Z,9.65
2023-04-30T01:40:08.188Z,9.62
2023-04-30T01:42:41.632Z,9.60
2023-04-30T01:45:21.123Z,9.58
2023-04-30T01:47:48.175Z,9.53
2023-04-30T01:50:15.260Z,9.50
2023-04-30T01:52:58.479Z,9.46
2023-04-30T01:55:37.703Z,9.40
2023-04-30T01:58:07.431Z,9.37
2023-04-30T02:00:34.649Z,9.33
2023-04-30T02:03:01.771Z,9.30
2023-04-30T02:05:30.702Z,9.28
2023-04-30T02:07:57.867Z,9.26
2023-04-30T02:10:26.285Z,9.24
2023-04-30T02:12:53.693Z,9.42
2023-04-30T02:15:22.696Z,9.50
2023-04-30T02:17:49.834Z,9.51
2023-04-30T02:20:16.931Z,9.27
2023-04-30T02:22:45.474Z,9.31
2023-04-30T02:25:12.292Z,9.41
2023-04-30T02:27:39.373Z,9.41
2023-04-30T02:30:06.648Z,9.39
2023-04-30T02:32:33.786Z,9.38
2023-04-30T02:35:01.138Z,9.38
2023-04-30T02:37:28.084Z,9.37
2023-04-30T02:39:55.101Z,9.39
2023-04-30T02:42:22.764Z,9.43
2023-04-30T02:44:49.604Z,9.48
2023-04-30T02:47:19.449Z,9.52
2023-04-30T02:49:46.268Z,9.57
2023-04-30T02:52:13.177Z,9.61
2023-04-30T02:54:40.044Z,9.65
2023-04-30T02:57:07.737Z,9.69
2023-04-30T02:59:36.058Z,9.74
2023-04-30T03:02:05.324Z,9.77
2023-04-30T03:04:32.147Z,9.79
2023-04-30T03:07:00.121Z,9.80
2023-04-30T03:09:26.929Z,9.83
2023-04-30T03:11:53.812Z,9.86
2023-04-30T03:14:20.998Z,9.90
2023-04-30T03:16:48.716Z,9.94
2023-04-30T03:19:21.694Z,9.97
2023-04-30T03:21:49.326Z,10.01
2023-04-30T03:24:19.570Z,10.05
2023-04-30T03:26:47.720Z,10.09
2023-04-30T03:29:15.211Z,10.13
2023-04-30T03:31:43.771Z,10.16
2023-04-30T03:34:11.225Z,10.19
2023-04-30T03:36:41.689Z,10.23
2023-04-30T03:39:09.596Z,10.27
2023-04-30T03:41:36.886Z,10.29
2023-04-30T03:44:06.975Z,10.32
2023-04-30T03:46:34.191Z,10.36
2023-04-30T03:49:01.666Z,10.41
2023-04-30T03:51:32.505Z,10.44
2023-04-30T03:54:05.914Z,10.48
2023-04-30T03:56:37.132Z,10.52
2023-04-30T03:59:07.401Z,10.56
2023-04-30T04:01:51.193Z,10.60
2023-04-30T04:04:20.522Z,10.64
2023-04-30T04:06:48.905Z,10.68
2023-04-30T04:09:15.904Z,10.73
2023-04-30T04:11:42.902Z,10.78
2023-04-30T04:14:10.076Z,10.82
2023-04-30T04:16:37.243Z,10.88
2023-04-30T04:19:04.120Z,10.93
2023-04-30T04:21:33.382Z,10.97
2023-04-30T04:24:08.064Z,11.03
2023-04-30T04:26:39.205Z,11.10
2023-04-30T04:29:15.249Z,11.14
2023-04-30T04:31:44.461Z,11.17
2023-04-30T04:37:37.478Z,11.29
2023-04-30T04:40:13.417Z,11.40
2023-04-30T04:42:42.232Z,11.46
2023-04-30T04:45:10.726Z,11.55
2023-04-30T04:47:39.943Z,11.61
2023-04-30T04:50:11.601Z,11.67
2023-04-30T04:52:43.859Z,11.73
2023-04-30T04:55:11.765Z,11.79
2023-04-30T04:57:42.099Z,11.85
2023-04-30T05:00:11.749Z,11.89
2023-04-30T05:02:39.801Z,11.98
2023-04-30T05:05:10.864Z,12.10
2023-04-30T05:07:37.915Z,12.16
2023-04-30T05:10:07.641Z,12.24
2023-04-30T05:12:36.382Z,12.33
2023-04-30T05:15:14.666Z,12.41
2023-04-30T05:17:43.063Z,12.48
2023-04-30T05:20:11.325Z,12.54
2023-04-30T05:22:40.272Z,12.60
2023-04-30T05:25:16.743Z,12.66
2023-04-30T05:28:01.181Z,12.70
2023-04-30T05:30:45.107Z,12.74
2023-04-30T05:33:28.670Z,12.76
2023-04-30T05:35:56.052Z,12.78
2023-04-30T05:38:23.060Z,12.79
2023-04-30T05:40:50.420Z,12.82
2023-04-30T05:43:17.489Z,12.85
2023-04-30T05:45:46.945Z,12.89
2023-04-30T05:48:14.381Z,12.94
2023-04-30T05:50:42.227Z,12.97
2023-04-30T05:53:09.079Z,13.02
2023-04-30T05:55:46.124Z,13.07
2023-04-30T05:58:13.395Z,13.12
2023-04-30T06:00:41.689Z,13.14
2023-04-30T06:03:18.582Z,13.17
2023-04-30T06:05:50.284Z,13.20
2023-04-30T06:08:23.096Z,13.23
2023-04-30T06:10:50.292Z,13.28
2023-04-30T06:13:18.804Z,13.35
2023-04-30T06:15:49.693Z,13.39
2023-04-30T06:18:21.142Z,13.41
2023-04-30T06:20:57.159Z,13.44
2023-04-30T06:23:31.482Z,13.49
2023-04-30T06:26:00.451Z,13.53
2023-04-30T06:28:40.293Z,13.60
2023-04-30T06:31:10.688Z,13.66
2023-04-30T06:33:42.230Z,13.71
2023-04-30T06:36:09.450Z,13.76
2023-04-30T06:38:39.057Z,13.82
2023-04-30T06:41:26.069Z,13.84
2023-04-30T06:44:06.179Z,13.87
2023-04-30T06:46:35.520Z,13.88
2023-04-30T06:49:05.522Z,13.89
2023-04-30T06:51:34.100Z,13.93
2023-04-30T06:54:01.451Z,13.99
2023-04-30T06:56:28.360Z,14.03
2023-04-30T06:58:59.250Z,14.04
2023-04-30T07:01:29.348Z,13.99
2023-04-30T07:03:59.847Z,13.97
2023-04-30T07:06:33.785Z,13.99
2023-04-30T07:09:09.236Z,14.03
2023-04-30T07:11:36.157Z,14.07
2023-04-30T07:14:04.452Z,14.08
2023-04-30T07:16:31.785Z,14.10
2023-04-30T07:18:59.647Z,14.12
2023-04-30T07:21:28.174Z,14.18
2023-04-30T07:24:01.110Z,14.22
2023-04-30T07:26:52.416Z,14.27
2023-04-30T07:29:21.106Z,14.32
2023-04-30T07:31:48.619Z,14.35
2023-04-30T07:34:25.101Z,14.35
2023-04-30T07:36:56.590Z,14.34
2023-04-30T07:39:30.855Z,14.35
2023-04-30T07:41:57.878Z,14.36
2023-04-30T07:44:25.213Z,14.39
2023-04-30T07:46:53.493Z,14.40
2023-04-30T07:49:21.083Z,14.38
2023-04-30T07:51:53.305Z,14.37
2023-04-30T07:54:22.284Z,14.40
2023-04-30T07:56:50.790Z,14.44
2023-04-30T07:59:18.292Z,14.47
2023-04-30T08:01:45.289Z,14.45
2023-04-30T08:04:12.578Z,14.44
2023-04-30T08:06:39.691Z,14.42
2023-04-30T08:09:07.150Z,14.42
2023-04-30T08:11:36.883Z,14.45
2023-04-30T08:14:06.949Z,14.47
2023-04-30T08:16:34.071Z,14.46
2023-04-30T08:19:01.151Z,14.47
2023-04-30T08:21:39.789Z,14.51
2023-04-30T08:24:07.669Z,14.55
2023-04-30T08:26:37.407Z,14.64
2023-04-30T08:29:04.625Z,14.75
2023-04-30T08:31:31.910Z,14.89
2023-04-30T08:34:02.942Z,15.04
2023-04-30T08:36:33.763Z,15.15
2023-04-30T08:39:01.919Z,15.25
2023-04-30T08:41:35.568Z,15.32
2023-04-30T08:44:14.104Z,15.38
2023-04-30T08:46:41.217Z,15.53
2023-04-30T08:49:10.762Z,15.72
2023-04-30T08:51:40.148Z,15.85
2023-04-30T08:54:11.813Z,15.94
2023-04-30T08:56:41.119Z,15.98
2023-04-30T08:59:13.683Z,16.00
2023-04-30T09:02:03.632Z,16.04
2023-04-30T09:04:32.101Z,16.17
2023-04-30T09:07:00.509Z,16.28
2023-04-30T09:09:39.149Z,16.37
2023-04-30T09:12:19.594Z,16.42
2023-04-30T09:15:06.570Z,16.41
2023-04-30T09:17:35.394Z,16.34
2023-04-30T09:20:12.593Z,16.33
2023-04-30T09:22:41.565Z,16.31
2023-04-30T09:25:14.929Z,16.34
2023-04-30T09:27:42.378Z,16.37
2023-04-30T09:30:09.733Z,16.38
2023-04-30T09:33:02.137Z,16.40
2023-04-30T09:35:47.410Z,16.38
2023-04-30T09:38:27.528Z,16.33
2023-04-30T09:40:54.397Z,16.24
2023-04-30T09:43:23.685Z,16.17
2023-04-30T09:45:51.783Z,16.12
2023-04-30T09:48:23.019Z,16.14
2023-04-30T09:50:53.081Z,16.25
2023-04-30T09:53:23.317Z,16.37
2023-04-30T09:55:51.719Z,16.42
2023-04-30T09:58:21.419Z,16.36
2023-04-30T10:00:49.005Z,16.39
2023-04-30T10:03:16.841Z,16.42
2023-04-30T10:05:48.840Z,16.40
2023-04-30T10:08:45.121Z,16.35
2023-04-30T10:11:17.796Z,16.35
2023-04-30T10:13:59.369Z,16.38
2023-04-30T10:16:37.522Z,16.37
2023-04-30T10:19:10.493Z,16.42
2023-04-30T10:21:38.839Z,16.44
2023-04-30T10:24:06.068Z,16.45
2023-04-30T10:26:33.328Z,16.45
2023-04-30T10:29:00.875Z,16.50
2023-04-30T10:31:28.542Z,16.53
2023-04-30T10:34:26.405Z,16.63
2023-04-30T10:37:00.338Z,16.70
2023-04-30T10:39:44.534Z,16.78
2023-04-30T10:42:11.488Z,16.84
2023-04-30T10:44:38.418Z,16.85
2023-04-30T10:47:07.097Z,16.89
2023-04-30T10:49:39.407Z,17.01
2023-04-30T10:52:06.413Z,17.17
2023-04-30T10:54:35.620Z,17.26
2023-04-30T10:57:19.999Z,17.24
2023-04-30T11:00:21.346Z,17.14
2023-04-30T11:02:49.502Z,17.08
2023-04-30T11:05:18.109Z,17.01
2023-04-30T11:07:50.743Z,16.92
2023-04-30T11:10:27.188Z,16.90
2023-04-30T11:12:54.817Z,16.90
2023-04-30T11:15:26.328Z,16.84
2023-04-30T11:18:01.133Z,16.86
2023-04-30T11:20:43.739Z,16.92
2023-04-30T11:23:19.652Z,16.98
2023-04-30T11:26:08.879Z,17.03
2023-04-30T11:28:38.605Z,17.04
2023-04-30T11:31:06.038Z,17.04
2023-04-30T11:33:38.032Z,17.06
2023-04-30T11:36:07.396Z,17.09
2023-04-30T11:38:42.018Z,17.10
2023-04-30T11:41:12.726Z,17.11
2023-04-30T11:43:42.830Z,17.16
2023-04-30T11:46:11.074Z,17.18
2023-04-30T11:48:41.971Z,17.17
2023-04-30T11:51:20.415Z,17.15
2023-04-30T11:53:55.203Z,17.11
2023-04-30T11:56:23.716Z,17.05
2023-04-30T11:58:56.241Z,17.02
2023-04-30T12:01:26.969Z,16.99
2023-04-30T12:04:10.014Z,17.00
2023-04-30T12:06:59.394Z,17.10
2023-04-30T12:09:35.273Z,17.15
2023-04-30T12:13:07.288Z,17.23
2023-04-30T12:15:36.882Z,17.33
2023-04-30T12:18:34.315Z,17.41
2023-04-30T12:21:36.838Z,17.46
2023-04-30T12:27:45.895Z,17.62
2023-04-30T12:31:32.864Z,17.64
2023-04-30T12:34:18.419Z,17.66
2023-04-30T12:36:51.718Z,17.63
2023-04-30T12:39:58.141Z,17.51
2023-04-30T12:42:50.690Z,17.45
2023-04-30T12:45:52.135Z,17.39
2023-04-30T12:48:21.529Z,17.37
2023-04-30T12:54:04.713Z,17.38
2023-04-30T12:56:35.093Z,17.39
2023-04-30T12:59:03.206Z,17.38
2023-04-30T13:01:33.273Z,17.34
2023-04-30T13:04:05.734Z,17.32
2023-04-30T13:06:47.312Z,17.28
2023-04-30T13:09:18.256Z,17.26
2023-04-30T13:11:55.745Z,17.25
2023-04-30T13:14:37.568Z,17.27
2023-04-30T13:17:07.964Z,17.27
2023-04-30T13:19:39.539Z,17.27
2023-04-30T13:23:06.218Z,17.29
2023-04-30T13:29:07.657Z,17.41
2023-04-30T13:31:43.125Z,17.45
2023-04-30T13:34:21.067Z,17.46
2023-04-30T13:36:48.149Z,17.47
2023-04-30T13:39:16.150Z,17.51
2023-04-30T13:41:43.451Z,17.62
2023-04-30T13:44:16.651Z,17.75
2023-04-30T13:50:29.508Z,17.98
2023-04-30T13:52:58.825Z,18.11
2023-04-30T13:55:26.838Z,18.21
2023-04-30T13:57:55.130Z,18.25
2023-04-30T14:00:27.443Z,18.30
2023-04-30T14:05:38.992Z,18.52
2023-04-30T14:08:38.380Z,18.64
2023-04-30T14:11:11.809Z,18.70
2023-04-30T14:13:43.240Z,18.71
2023-04-30T14:25:03.899Z,18.57
2023-04-30T14:27:40.446Z,18.45
2023-04-30T14:37:27.728Z,17.97
2023-04-30T14:40:01.857Z,17.87
2023-04-30T14:42:35.124Z,17.76
2023-04-30T14:48:57.561Z,17.58
2023-04-30T14:51:24.511Z,17.58
2023-04-30T14:53:54.258Z,17.55
2023-04-30T14:56:23.190Z,17.51
2023-04-30T14:58:50.632Z,17.41
2023-04-30T15:01:20.585Z,17.29
2023-04-30T15:07:24.812Z,17.12
2023-04-30T15:10:46.226Z,17.09
2023-04-30T15:14:31.163Z,17.05
2023-04-30T15:17:26.082Z,17.01
2023-04-30T15:23:20.302Z,16.93
2023-04-30T15:25:48.747Z,16.90
2023-04-30T15:31:17.996Z,16.81
2023-04-30T15:33:51.898Z,16.75
2023-04-30T15:36:34.985Z,16.67
2023-04-30T15:39:44.319Z,16.63
2023-04-30T15:43:32.530Z,16.57
2023-04-30T15:46:29.806Z,16.52
2023-04-30T15:49:19.548Z,16.48
2023-04-30T15:52:04.029Z,16.44
2023-04-30T15:54:31.148Z,16.38
2023-04-30T15:56:59.488Z,16.33
2023-04-30T15:59:27.555Z,16.28
2023-04-30T16:01:57.044Z,16.25
2023-04-30T16:04:25.219Z,16.20
2023-04-30T16:06:52.981Z,16.16
2023-04-30T16:09:24.185Z,16.12
2023-04-30T16:11:53.250Z,16.09
2023-04-30T16:14:20.633Z,16.06
2023-04-30T16:16:47.693Z,16.03
2023-04-30T16:19:20.597Z,16.00
2023-04-30T16:21:48.722Z,15.97
2023-04-30T16:24:17.544Z,15.95
2023-04-30T16:33:17.897Z,15.86
2023-04-30T16:38:47.694Z,15.69
2023-04-30T16:41:21.193Z,15.63
2023-04-30T16:52:13.343Z,15.39
2023-04-30T16:54:49.500Z,15.32
2023-04-30T17:01:52.443Z,15.16
2023-04-30T17:10:57.117Z,15.01
2023-04-30T17:13:45.040Z,14.97
2023-04-30T17:20:15.298Z,14.90
2023-04-30T17:22:50.205Z,14.85
2023-04-30T17:25:24.859Z,14.80
2023-04-30T17:27:54.492Z,14.74
2023-04-30T17:30:24.905Z,14.70
2023-04-30T17:33:31.444Z,14.63
2023-04-30T17:36:30.028Z,14.57
2023-04-30T17:39:29.346Z,14.49
2023-04-30T17:41:59.310Z,14.41
2023-04-30T17:44:31.257Z,14.35
2023-04-30T17:46:59.243Z,14.30
2023-04-30T17:49:33.614Z,14.27
2023-04-30T17:52:03.276Z,14.21
2023-04-30T17:54:38.192Z,14.14
2023-04-30T17:57:20.514Z,14.06
2023-04-30T17:59:47.485Z,13.96
2023-04-30T18:02:14.801Z,13.87
2023-04-30T18:05:14.804Z,13.78
2023-04-30T18:07:42.802Z,13.70
2023-04-30T18:10:13.903Z,13.60
2023-04-30T18:12:43.616Z,13.53
2023-04-30T18:15:12.827Z,13.47
2023-04-30T18:17:41.310Z,13.43
2023-04-30T18:20:12.627Z,13.36
2023-04-30T18:22:43.818Z,13.29
2023-04-30T18:25:11.734Z,13.23
2023-04-30T18:27:41.639Z,13.18
2023-04-30T18:30:09.673Z,13.12
2023-04-30T18:32:38.204Z,13.08
2023-04-30T18:35:10.099Z,13.01
2023-04-30T18:37:43.155Z,12.92
2023-04-30T18:40:13.155Z,12.85
2023-04-30T18:42:40.292Z,12.77
2023-04-30T18:45:12.123Z,12.72
2023-04-30T18:47:41.177Z,12.69
2023-04-30T18:50:13.289Z,12.69
2023-04-30T18:52:42.722Z,12.70
2023-04-30T18:55:14.298Z,12.72
2023-04-30T18:57:46.466Z,12.74
2023-04-30T19:00:14.521Z,12.76
2023-04-30T19:02:48.730Z,12.77
2023-04-30T19:05:34.545Z,12.77
2023-04-30T19:08:01.677Z,12.75
2023-04-30T19:10:29.662Z,12.72
2023-04-30T19:12:56.982Z,12.71
2023-04-30T19:15:25.538Z,12.70
2023-04-30T19:17:52.482Z,12.69
2023-04-30T19:20:19.458Z,12.66
2023-04-30T19:22:49.725Z,12.63
2023-04-30T19:25:17.674Z,12.58
2023-04-30T19:27:44.667Z,12.53
2023-04-30T19:30:11.941Z,12.50
2023-04-30T19:32:39.012Z,12.49
2023-04-30T19:35:06.484Z,12.46
2023-04-30T19:37:36.131Z,12.44
2023-04-30T19:40:06.405Z,12.41
2023-04-30T19:42:36.524Z,12.38
2023-04-30T19:45:03.890Z,12.37
2023-04-30T19:47:31.047Z,12.36
2023-04-30T19:49:58.204Z,12.36
2023-04-30T19:52:25.361Z,12.33
2023-04-30T19:54:52.233Z,12.30
2023-04-30T19:57:19.210Z,12.28
2023-04-30T19:59:46.832Z,12.25
2023-04-30T20:02:15.860Z,12.21
2023-04-30T20:04:42.782Z,12.18
2023-04-30T20:07:09.904Z,12.16
2023-04-30T20:09:38.964Z,12.14
2023-04-30T20:12:05.885Z,12.13
2023-04-30T20:14:32.971Z,12.11
2023-04-30T20:17:00.126Z,12.08
2023-04-30T20:19:27.038Z,12.07
2023-04-30T20:21:54.303Z,12.08
2023-04-30T20:24:22.135Z,12.07
2023-04-30T20:26:49.482Z,12.05
2023-04-30T20:29:18.087Z,12.02
2023-04-30T20:31:45.013Z,11.98
2023-04-30T20:34:12.301Z,11.96
2023-04-30T20:36:39.439Z,11.95
2023-04-30T20:39:08.369Z,11.93
2023-04-30T20:41:35.659Z,11.94
2023-04-30T20:44:02.546Z,11.98
2023-04-30T20:46:31.628Z,12.00
2023-04-30T20:49:03.556Z,12.00
2023-04-30T20:51:31.424Z,11.99
2023-04-30T20:53:58.580Z,11.95
2023-04-30T20:56:26.659Z,11.91
2023-04-30T20:58:54.103Z,11.87
2023-04-30T21:01:21.103Z,11.82
2023-04-30T21:03:48.723Z,11.77
2023-04-30T21:06:16.986Z,11.72
2023-04-30T21:08:44.074Z,11.67
2023-04-30T21:11:13.225Z,11.61
2023-04-30T21:13:41.916Z,11.55
2023-04-30T21:16:08.829Z,11.49
2023-04-30T21:18:36.124Z,11.44
2023-04-30T21:21:04.353Z,11.39
2023-04-30T21:23:32.108Z,11.35
2023-04-30T21:25:58.975Z,11.29
2023-04-30T21:28:26.680Z,11.24
2023-04-30T21:30:54.571Z,11.19
2023-04-30T21:33:21.452Z,11.14
2023-04-30T21:35:48.523Z,11.10
2023-04-30T21:38:15.865Z,11.04
2023-04-30T21:40:42.639Z,10.97
2023-04-30T21:43:09.473Z,10.87
2023-04-30T21:45:36.383Z,10.80
2023-04-30T21:48:03.825Z,10.76
2023-04-30T21:50:34.523Z,10.73
2023-04-30T21:53:02.899Z,10.70
2023-04-30T21:55:30.757Z,10.69
2023-04-30T21:57:58.421Z,10.69
2023-04-30T22:00:26.984Z,10.67
2023-04-30T22:02:54.188Z,10.66
2023-04-30T22:05:21.390Z,10.64
2023-04-30T22:07:48.500Z,10.62
2023-04-30T22:10:15.494Z,10.61
2023-04-30T22:12:43.904Z,10.61
2023-04-30T22:15:13.554Z,10.58
2023-04-30T22:20:09.584Z,10.53
2023-04-30T22:22:36.456Z,10.50
2023-04-30T22:25:04.077Z,10.48
2023-04-30T22:27:31.605Z,10.44
2023-04-30T22:29:58.907Z,10.42
2023-04-30T22:32:26.099Z,10.40
2023-04-30T22:34:53.073Z,10.39
2023-04-30T22:37:20.048Z,10.36
2023-04-30T22:39:48.191Z,10.32
2023-04-30T22:42:15.246Z,10.32
2023-04-30T22:44:42.420Z,10.35
2023-04-30T22:47:09.504Z,10.33
2023-04-30T22:49:38.366Z,10.33
2023-04-30T22:52:09.680Z,10.32
2023-04-30T22:54:36.570Z,10.31
2023-04-30T22:57:03.566Z,10.29
2023-04-30T22:59:39.429Z,10.28
2023-04-30T23:02:06.331Z,10.26
2023-04-30T23:04:36.574Z,10.24
2023-04-30T23:07:05.135Z,10.22
2023-04-30T23:09:33.481Z,10.20
2023-04-30T23:12:01.640Z,10.18
2023-04-30T23:14:29.334Z,10.16
2023-04-30T23:16:56.566Z,10.15
2023-04-30T23:19:24.137Z,10.14
2023-04-30T23:21:51.723Z,10.16
2023-04-30T23:24:19.202Z,10.19
2023-04-30T23:26:47.372Z,10.20
2023-04-30T23:29:14.713Z,10.20
2023-04-30T23:31:41.767Z,10.19
2023-04-30T23:34:08.702Z,10.20
2023-04-30T23:36:35.755Z,10.21
2023-04-30T23:39:04.150Z,10.22
2023-04-30T23:41:32.614Z,10.20
2023-04-30T23:43:59.489Z,10.16
2023-04-30T23:46:26.655Z,10.20
2023-04-30T23:48:53.673Z,10.20
2023-04-30T23:51:22.081Z,10.10
2023-04-30T23:53:50.421Z,10.04
2023-04-30T23:56:17.638Z,9.98
2023-04-30T23:58:45.004Z,9.94
